METAR AND TAF INFORMATION
METAR FOR LTAC
ADDS - METARS form results

(1840 UTC 16 May 2022)
Data provider http://aviationweather.gov/metar/data/
 
METAR text: LTAC 161820Z VRB02KT 9999 SCT035 BKN090 13/11 Q1020 NOSIG RMK RWY21L VRB01KT RWY03L 00000KT RWY21R VRB02KT
Conditions at: LTAC (ANKARA/ESENBOGA , TR) observed 1820 UTC 16 May 2022
Temperature: 13.0°C (55°F)
Dewpoint: 11.0°C (52°F) [RH = 88%]
Pressure (altimeter): 30.12 inches Hg (1020.0 mb)
Winds: variable direction winds at 2 MPH (2 knots; 1.0 m/s)
Visibility: 6 or more miles (10+ km)
Ceiling: 9000 feet AGL
Clouds: scattered clouds at 3500 feet AGL
broken clouds at 9000 feet AGL
Weather: no significant weather observed at this time

METAR text: LTAC 161750Z 32004KT 9999 SCT035 BKN090 13/11 Q1020 NOSIG RMK RWY21L 29004KT RWY03L 31003KT RWY21R 30004KT
Conditions at: LTAC (ANKARA/ESENBOGA , TR) observed 1750 UTC 16 May 2022
Temperature: 13.0°C (55°F)
Dewpoint: 11.0°C (52°F) [RH = 88%]
Pressure (altimeter): 30.12 inches Hg (1020.0 mb)
Winds: from the NW (320 degrees) at 5 MPH (4 knots; 2.1 m/s)
Visibility: 6 or more miles (10+ km)
Ceiling: 9000 feet AGL
Clouds: scattered clouds at 3500 feet AGL
broken clouds at 9000 feet AGL
Weather: no significant weather observed at this time

Forecast for: LTAC (ANKARA/ESENBOGA , TR)
Text: TAF LTAC 161640Z 1618/1718 VRB02KT 9999 SCT040 SCT100
Forecast period: 1800 UTC 16 May 2022 to 1800 UTC 17 May 2022
Forecast type: FROM: standard forecast or significant change
Winds: variable direction winds at 2 MPH (2 knots; 1.0 m/s)
Visibility: 6 or more miles (10+ km)
Ceiling: at least 12,000 feet AGL
Clouds: scattered clouds at 4000 feet AGL
scattered clouds at 10000 feet AGL
Weather: no significant weather forecast for this period
Text: TEMPO 1712/1716 -SHRA FEW025CB BKN030 BKN080
Forecast period: 1200 to 1600 UTC 17 May 2022
Forecast type: TEMPORARY: The following changes expected for less than half the time period
Visibility: missing
Ceiling: 3000 feet AGL
Clouds: few clouds at 2500 feet AGL
broken clouds at 3000 feet AGL
broken clouds at 8000 feet AGL
Weather: -SHRA  (light rain showers)

 AIRPORT MAP

 RUNWAY INFORMATION
Runway 03L Runway length 12303 ft Runway width 148 ft
Runway elevation 3100 ft Runway displaced threshold 1148 ft Runway heading 36
Runway 21R Runway length 12303 ft Runway width 148 ft
Runway elevation 3123 ft Runway displaced threshold 0 ft Runway heading 216
Runway 03R Runway length 12303 ft Runway width 197 ft
Runway elevation 3097 ft Runway displaced threshold 0 ft Runway heading 35
Runway 21L Runway length 12303 ft Runway width 197 ft
Runway elevation 3125 ft Runway displaced threshold 0 ft Runway heading 215

 AIRPORT FREQUENCIES
Type APP Name APP Frequency 119.1 MHZ
Type ATIS Name ATIS Frequency 123.6 MHZ
Type GND Name GND Frequency 121.9 MHZ
Type TWR Name TWR Frequency 118.1 MHZ

 AIRPORT NEAR NAVIGATION AIDS
Type VOR-DME Name Cubuk Frequency 114300 KHZ

Designed by Bursa Virtual Airlines | Hosted in MirzaCloud